Terminal Aerodrome Forecast
Issued by NWS

Current Version | Previous Version | Text Only | Print | Product List | Glossary On
Versions: 1 2 3 4 5 6 7 8 9 10 11 12 13 14 15 16 17 18 19 20 21 22 23 24 25 26 27 28 29 30 31 32 33 34 35 36 37 38 39 40 41 42 43 44 45 46 47 48 49 50
000
FTUS41 KCTP 160630 AAA
TAFBFD
TAF AMD
KBFD 160630Z 1607/1706 00000KT 3SM -RA BR BKN005 OVC050
     FM160900 29003KT 5SM BR VCSH BKN007 OVC012
     FM161400 31008KT P6SM BKN025 OVC035
     FM161800 30008KT P6SM BKN040
     FM170000 00000KT P6SM SKC=

USA.gov is the U.S. government's official web portal to all federal, state and local government web resources and services.